KSIY

Siskiyou County Airport

Montague, California, USA
METAR KSIY 211953Z AUTO 18022KT 10SM OVC070 07/M01 A3012 RMK AO2 PK WND 17028/1943 SLP224 T00671011
Observed Flight Rules
Jan-21 @ 19:53 UTC (34 minutes ago) Visual Flight Rules
Wind Visibility Clouds
180° at 22 knots 10 miles
  • Overcast at 7,000' AGL
Temperatures Readings
Current 7°C / 45°F
Dewpoint -1°C / 30°F
Humidity 57%
Altimeter 30.12" Hg
Pressure 1022.4 hPa
Elevation 807
METAR KSIY 211953Z AUTO 18022KT 10SM OVC070 07/M01 A3012 RMK AO2 PK WND 17028/1943 SLP224 T00671011
Observed Flight Rules
Jan-21 @ 19:53 UTC
(34 minutes ago)
VFR
Wind Visibility
180° at 22 knots 10 miles
Clouds
  • Overcast at 7,000' AGL
Temperature Dewpoint
7°C / 45°F -1°C / 30°F
Humidity Altimeter Pressure
57% 30.12" Hg 1022.4 hPa